sensor_id;sensor_type;location;lat;lon;timestamp;P1;durP1;ratioP1;P2;durP2;ratioP2
67508;SDS011;54354;44.724;11.284;2023-02-23T00:00:29;102.25;;;55.10;;
67508;SDS011;54354;44.724;11.284;2023-02-23T00:02:57;101.50;;;52.00;;
67508;SDS011;54354;44.724;11.284;2023-02-23T00:05:29;100.60;;;52.53;;
67508;SDS011;54354;44.724;11.284;2023-02-23T00:07:59;100.82;;;53.22;;
67508;SDS011;54354;44.724;11.284;2023-02-23T00:10:26;98.95;;;50.75;;
67508;SDS011;54354;44.724;11.284;2023-02-23T00:12:57;98.07;;;52.20;;
67508;SDS011;54354;44.724;11.284;2023-02-23T00:15:24;101.97;;;51.50;;
67508;SDS011;54354;44.724;11.284;2023-02-23T00:17:54;97.72;;;52.08;;
67508;SDS011;54354;44.724;11.284;2023-02-23T00:20:22;97.30;;;52.00;;
67508;SDS011;54354;44.724;11.284;2023-02-23T00:25:21;102.45;;;52.00;;
67508;SDS011;54354;44.724;11.284;2023-02-23T00:27:48;95.30;;;49.72;;
67508;SDS011;54354;44.724;11.284;2023-02-23T00:30:15;87.35;;;48.70;;
67508;SDS011;54354;44.724;11.284;2023-02-23T00:32:46;96.18;;;51.90;;
67508;SDS011;54354;44.724;11.284;2023-02-23T00:35:12;94.13;;;50.55;;
67508;SDS011;54354;44.724;11.284;2023-02-23T00:37:44;93.47;;;50.65;;
67508;SDS011;54354;44.724;11.284;2023-02-23T00:40:14;92.07;;;49.35;;
67508;SDS011;54354;44.724;11.284;2023-02-23T00:42:44;92.20;;;49.10;;
67508;SDS011;54354;44.724;11.284;2023-02-23T00:45:11;96.38;;;51.22;;
67508;SDS011;54354;44.724;11.284;2023-02-23T00:47:38;87.43;;;48.83;;
67508;SDS011;54354;44.724;11.284;2023-02-23T00:50:07;86.00;;;49.63;;
67508;SDS011;54354;44.724;11.284;2023-02-23T00:52:38;87.13;;;48.92;;
67508;SDS011;54354;44.724;11.284;2023-02-23T00:55:07;92.80;;;49.78;;
67508;SDS011;54354;44.724;11.284;2023-02-23T00:57:34;97.07;;;50.35;;
67508;SDS011;54354;44.724;11.284;2023-02-23T00:59:59;96.05;;;50.47;;
67508;SDS011;54354;44.724;11.284;2023-02-23T01:02:26;93.85;;;49.95;;
67508;SDS011;54354;44.724;11.284;2023-02-23T01:04:55;88.95;;;49.38;;
67508;SDS011;54354;44.724;11.284;2023-02-23T01:07:23;94.53;;;49.40;;
67508;SDS011;54354;44.724;11.284;2023-02-23T01:09:50;89.07;;;50.35;;
67508;SDS011;54354;44.724;11.284;2023-02-23T01:12:16;94.63;;;49.80;;
67508;SDS011;54354;44.724;11.284;2023-02-23T01:14:42;98.50;;;51.00;;
67508;SDS011;54354;44.724;11.284;2023-02-23T01:17:09;93.63;;;49.83;;
67508;SDS011;54354;44.724;11.284;2023-02-23T01:19:35;90.40;;;49.60;;
67508;SDS011;54354;44.724;11.284;2023-02-23T01:22:01;92.85;;;50.58;;
67508;SDS011;54354;44.724;11.284;2023-02-23T01:24:27;87.15;;;47.65;;
67508;SDS011;54354;44.724;11.284;2023-02-23T01:26:53;92.53;;;50.05;;
67508;SDS011;54354;44.724;11.284;2023-02-23T01:29:19;84.80;;;47.85;;
67508;SDS011;54354;44.724;11.284;2023-02-23T01:31:48;88.53;;;49.42;;
67508;SDS011;54354;44.724;11.284;2023-02-23T01:34:17;88.20;;;50.08;;
67508;SDS011;54354;44.724;11.284;2023-02-23T01:36:45;82.68;;;47.03;;
67508;SDS011;54354;44.724;11.284;2023-02-23T01:39:12;87.75;;;47.58;;
67508;SDS011;54354;44.724;11.284;2023-02-23T01:41:40;82.97;;;46.80;;
67508;SDS011;54354;44.724;11.284;2023-02-23T01:46:38;86.28;;;47.75;;
67508;SDS011;54354;44.724;11.284;2023-02-23T01:49:05;85.78;;;46.95;;
67508;SDS011;54354;44.724;11.284;2023-02-23T01:51:36;88.38;;;49.65;;
67508;SDS011;54354;44.724;11.284;2023-02-23T01:54:06;89.15;;;47.78;;
67508;SDS011;54354;44.724;11.284;2023-02-23T01:56:39;88.85;;;48.55;;
67508;SDS011;54354;44.724;11.284;2023-02-23T01:59:10;85.25;;;48.35;;
67508;SDS011;54354;44.724;11.284;2023-02-23T02:01:39;92.72;;;48.95;;
67508;SDS011;54354;44.724;11.284;2023-02-23T02:04:07;84.07;;;47.30;;
67508;SDS011;54354;44.724;11.284;2023-02-23T02:06:34;83.57;;;48.33;;
67508;SDS011;54354;44.724;11.284;2023-02-23T02:09:02;88.75;;;48.85;;
67508;SDS011;54354;44.724;11.284;2023-02-23T02:11:33;92.55;;;50.50;;
67508;SDS011;54354;44.724;11.284;2023-02-23T02:27:26;92.63;;;49.35;;
67508;SDS011;54354;44.724;11.284;2023-02-23T02:30:07;90.88;;;50.28;;
67508;SDS011;54354;44.724;11.284;2023-02-23T02:41:04;85.40;;;48.35;;
67508;SDS011;54354;44.724;11.284;2023-02-23T02:43:50;91.03;;;50.75;;
67508;SDS011;54354;44.724;11.284;2023-02-23T02:46:24;97.28;;;50.00;;
67508;SDS011;54354;44.724;11.284;2023-02-23T02:48:58;90.03;;;49.70;;
67508;SDS011;54354;44.724;11.284;2023-02-23T02:54:05;88.80;;;48.75;;
67508;SDS011;54354;44.724;11.284;2023-02-23T02:56:39;89.57;;;48.50;;
67508;SDS011;54354;44.724;11.284;2023-02-23T02:59:11;91.60;;;49.20;;
67508;SDS011;54354;44.724;11.284;2023-02-23T03:01:59;87.97;;;49.42;;
67508;SDS011;54354;44.724;11.284;2023-02-23T03:04:43;91.65;;;49.15;;
67508;SDS011;54354;44.724;11.284;2023-02-23T03:16:36;86.50;;;47.40;;
67508;SDS011;54354;44.724;11.284;2023-02-23T03:19:25;86.40;;;48.17;;
67508;SDS011;54354;44.724;11.284;2023-02-23T03:25:02;94.25;;;47.97;;
67508;SDS011;54354;44.724;11.284;2023-02-23T03:27:55;95.05;;;49.78;;
67508;SDS011;54354;44.724;11.284;2023-02-23T03:33:37;91.45;;;48.47;;
67508;SDS011;54354;44.724;11.284;2023-02-23T03:36:29;92.30;;;49.25;;
67508;SDS011;54354;44.724;11.284;2023-02-23T03:39:39;91.32;;;49.67;;
67508;SDS011;54354;44.724;11.284;2023-02-23T03:42:29;85.35;;;47.78;;
67508;SDS011;54354;44.724;11.284;2023-02-23T03:45:18;95.57;;;49.55;;
67508;SDS011;54354;44.724;11.284;2023-02-23T03:48:07;95.45;;;49.47;;
67508;SDS011;54354;44.724;11.284;2023-02-23T03:50:54;89.38;;;50.63;;
67508;SDS011;54354;44.724;11.284;2023-02-23T03:56:29;92.20;;;50.80;;
67508;SDS011;54354;44.724;11.284;2023-02-23T03:59:19;89.88;;;48.90;;
67508;SDS011;54354;44.724;11.284;2023-02-23T04:02:07;92.32;;;49.97;;
67508;SDS011;54354;44.724;11.284;2023-02-23T04:04:54;96.68;;;50.55;;
67508;SDS011;54354;44.724;11.284;2023-02-23T04:07:42;92.30;;;50.85;;
67508;SDS011;54354;44.724;11.284;2023-02-23T04:10:30;91.70;;;50.25;;
67508;SDS011;54354;44.724;11.284;2023-02-23T04:13:19;82.50;;;47.03;;
67508;SDS011;54354;44.724;11.284;2023-02-23T04:18:15;89.05;;;49.90;;
67508;SDS011;54354;44.724;11.284;2023-02-23T04:20:44;86.95;;;49.92;;
67508;SDS011;54354;44.724;11.284;2023-02-23T04:23:10;91.05;;;51.00;;
67508;SDS011;54354;44.724;11.284;2023-02-23T04:25:35;87.38;;;49.92;;
67508;SDS011;54354;44.724;11.284;2023-02-23T04:28:01;90.60;;;50.05;;
67508;SDS011;54354;44.724;11.284;2023-02-23T04:30:27;89.10;;;49.13;;
67508;SDS011;54354;44.724;11.284;2023-02-23T04:32:54;90.13;;;50.22;;
67508;SDS011;54354;44.724;11.284;2023-02-23T04:35:19;96.22;;;50.47;;
67508;SDS011;54354;44.724;11.284;2023-02-23T04:37:45;98.25;;;52.15;;
67508;SDS011;54354;44.724;11.284;2023-02-23T04:40:11;96.70;;;51.65;;
67508;SDS011;54354;44.724;11.284;2023-02-23T04:42:37;93.25;;;50.17;;
67508;SDS011;54354;44.724;11.284;2023-02-23T04:45:04;90.97;;;49.47;;
67508;SDS011;54354;44.724;11.284;2023-02-23T04:47:30;89.35;;;49.00;;
67508;SDS011;54354;44.724;11.284;2023-02-23T04:49:56;87.72;;;48.38;;
67508;SDS011;54354;44.724;11.284;2023-02-23T04:52:21;90.47;;;50.58;;
67508;SDS011;54354;44.724;11.284;2023-02-23T04:54:47;91.35;;;50.55;;
67508;SDS011;54354;44.724;11.284;2023-02-23T04:57:13;95.82;;;49.45;;
67508;SDS011;54354;44.724;11.284;2023-02-23T04:59:38;97.45;;;50.20;;
67508;SDS011;54354;44.724;11.284;2023-02-23T05:02:04;86.22;;;50.42;;
67508;SDS011;54354;44.724;11.284;2023-02-23T05:04:30;89.43;;;50.45;;
67508;SDS011;54354;44.724;11.284;2023-02-23T05:06:56;84.90;;;48.85;;
67508;SDS011;54354;44.724;11.284;2023-02-23T05:09:22;89.05;;;49.33;;
67508;SDS011;54354;44.724;11.284;2023-02-23T05:11:47;88.32;;;48.70;;
67508;SDS011;54354;44.724;11.284;2023-02-23T05:14:13;91.38;;;49.50;;
67508;SDS011;54354;44.724;11.284;2023-02-23T05:16:38;85.05;;;48.08;;
67508;SDS011;54354;44.724;11.284;2023-02-23T05:19:04;85.95;;;47.35;;
67508;SDS011;54354;44.724;11.284;2023-02-23T05:21:29;86.88;;;49.20;;
67508;SDS011;54354;44.724;11.284;2023-02-23T05:23:55;91.20;;;48.20;;
67508;SDS011;54354;44.724;11.284;2023-02-23T05:26:21;86.40;;;48.95;;
67508;SDS011;54354;44.724;11.284;2023-02-23T05:28:47;84.55;;;48.65;;
67508;SDS011;54354;44.724;11.284;2023-02-23T05:31:12;91.35;;;49.13;;
67508;SDS011;54354;44.724;11.284;2023-02-23T05:33:39;97.93;;;51.13;;
67508;SDS011;54354;44.724;11.284;2023-02-23T05:36:08;91.30;;;51.55;;
67508;SDS011;54354;44.724;11.284;2023-02-23T05:38:35;90.03;;;50.30;;
67508;SDS011;54354;44.724;11.284;2023-02-23T05:41:04;94.88;;;50.17;;
67508;SDS011;54354;44.724;11.284;2023-02-23T05:43:31;99.90;;;52.13;;
67508;SDS011;54354;44.724;11.284;2023-02-23T05:45:56;86.65;;;48.97;;
67508;SDS011;54354;44.724;11.284;2023-02-23T05:48:22;92.88;;;50.13;;
67508;SDS011;54354;44.724;11.284;2023-02-23T05:50:47;97.13;;;51.03;;
67508;SDS011;54354;44.724;11.284;2023-02-23T05:53:13;93.07;;;49.83;;
67508;SDS011;54354;44.724;11.284;2023-02-23T05:55:39;89.38;;;50.80;;
67508;SDS011;54354;44.724;11.284;2023-02-23T05:58:04;92.07;;;50.78;;
67508;SDS011;54354;44.724;11.284;2023-02-23T06:00:30;99.53;;;53.25;;
67508;SDS011;54354;44.724;11.284;2023-02-23T06:02:55;88.70;;;50.05;;
67508;SDS011;54354;44.724;11.284;2023-02-23T06:05:21;99.75;;;52.85;;
67508;SDS011;54354;44.724;11.284;2023-02-23T06:07:46;94.28;;;51.88;;
67508;SDS011;54354;44.724;11.284;2023-02-23T06:10:12;95.90;;;51.47;;
67508;SDS011;54354;44.724;11.284;2023-02-23T06:12:38;100.47;;;52.33;;
67508;SDS011;54354;44.724;11.284;2023-02-23T06:15:03;91.30;;;51.10;;
67508;SDS011;54354;44.724;11.284;2023-02-23T06:17:29;97.57;;;54.13;;
67508;SDS011;54354;44.724;11.284;2023-02-23T06:19:58;97.07;;;51.40;;
67508;SDS011;54354;44.724;11.284;2023-02-23T06:22:26;89.13;;;50.35;;
67508;SDS011;54354;44.724;11.284;2023-02-23T06:24:51;94.22;;;51.00;;
67508;SDS011;54354;44.724;11.284;2023-02-23T06:27:17;91.78;;;52.55;;
67508;SDS011;54354;44.724;11.284;2023-02-23T06:29:42;95.47;;;50.22;;
67508;SDS011;54354;44.724;11.284;2023-02-23T06:32:08;96.78;;;52.47;;
67508;SDS011;54354;44.724;11.284;2023-02-23T06:34:33;96.13;;;51.53;;
67508;SDS011;54354;44.724;11.284;2023-02-23T06:36:59;91.00;;;51.80;;
67508;SDS011;54354;44.724;11.284;2023-02-23T06:39:24;97.70;;;51.78;;
67508;SDS011;54354;44.724;11.284;2023-02-23T06:41:50;97.15;;;50.95;;
67508;SDS011;54354;44.724;11.284;2023-02-23T06:44:16;103.78;;;53.97;;
67508;SDS011;54354;44.724;11.284;2023-02-23T06:46:41;101.95;;;53.22;;
67508;SDS011;54354;44.724;11.284;2023-02-23T06:49:07;99.75;;;52.88;;
67508;SDS011;54354;44.724;11.284;2023-02-23T06:51:34;99.45;;;51.50;;
67508;SDS011;54354;44.724;11.284;2023-02-23T06:54:00;100.32;;;53.42;;
67508;SDS011;54354;44.724;11.284;2023-02-23T06:56:25;94.28;;;50.67;;
67508;SDS011;54354;44.724;11.284;2023-02-23T06:58:50;97.72;;;53.25;;
67508;SDS011;54354;44.724;11.284;2023-02-23T07:01:16;105.47;;;53.38;;
67508;SDS011;54354;44.724;11.284;2023-02-23T07:03:42;102.78;;;53.15;;
67508;SDS011;54354;44.724;11.284;2023-02-23T07:06:08;97.90;;;54.35;;
67508;SDS011;54354;44.724;11.284;2023-02-23T07:08:34;106.43;;;54.13;;
67508;SDS011;54354;44.724;11.284;2023-02-23T07:11:10;93.88;;;51.55;;
67508;SDS011;54354;44.724;11.284;2023-02-23T07:13:37;95.97;;;53.72;;
67508;SDS011;54354;44.724;11.284;2023-02-23T07:16:04;92.13;;;51.20;;
67508;SDS011;54354;44.724;11.284;2023-02-23T07:18:30;93.10;;;50.10;;
67508;SDS011;54354;44.724;11.284;2023-02-23T07:20:56;89.65;;;50.58;;
67508;SDS011;54354;44.724;11.284;2023-02-23T07:23:21;86.78;;;49.95;;
67508;SDS011;54354;44.724;11.284;2023-02-23T07:25:53;92.63;;;51.83;;
67508;SDS011;54354;44.724;11.284;2023-02-23T07:28:22;92.43;;;52.08;;
67508;SDS011;54354;44.724;11.284;2023-02-23T07:30:48;106.93;;;56.38;;
67508;SDS011;54354;44.724;11.284;2023-02-23T07:33:16;94.78;;;53.38;;
67508;SDS011;54354;44.724;11.284;2023-02-23T07:35:42;103.90;;;56.10;;
67508;SDS011;54354;44.724;11.284;2023-02-23T07:38:08;103.93;;;55.63;;
67508;SDS011;54354;44.724;11.284;2023-02-23T07:40:34;105.05;;;54.80;;
67508;SDS011;54354;44.724;11.284;2023-02-23T07:42:59;102.38;;;54.75;;
67508;SDS011;54354;44.724;11.284;2023-02-23T07:45:25;102.30;;;54.97;;
67508;SDS011;54354;44.724;11.284;2023-02-23T07:47:50;108.82;;;55.20;;
67508;SDS011;54354;44.724;11.284;2023-02-23T07:50:16;117.47;;;57.72;;
67508;SDS011;54354;44.724;11.284;2023-02-23T07:52:42;110.90;;;54.88;;
67508;SDS011;54354;44.724;11.284;2023-02-23T07:55:08;107.57;;;55.47;;
67508;SDS011;54354;44.724;11.284;2023-02-23T07:57:35;103.93;;;55.45;;
67508;SDS011;54354;44.724;11.284;2023-02-23T08:00:00;108.65;;;55.85;;
67508;SDS011;54354;44.724;11.284;2023-02-23T08:02:26;100.32;;;56.35;;
67508;SDS011;54354;44.724;11.284;2023-02-23T08:04:56;97.93;;;54.58;;
67508;SDS011;54354;44.724;11.284;2023-02-23T08:07:22;102.72;;;52.17;;
67508;SDS011;54354;44.724;11.284;2023-02-23T08:09:50;88.75;;;50.20;;
67508;SDS011;54354;44.724;11.284;2023-02-23T08:12:16;90.13;;;50.03;;
67508;SDS011;54354;44.724;11.284;2023-02-23T08:14:42;88.63;;;49.63;;
67508;SDS011;54354;44.724;11.284;2023-02-23T08:17:08;88.40;;;50.25;;
67508;SDS011;54354;44.724;11.284;2023-02-23T08:19:33;87.47;;;51.22;;
67508;SDS011;54354;44.724;11.284;2023-02-23T08:22:00;91.78;;;53.30;;
67508;SDS011;54354;44.724;11.284;2023-02-23T08:24:26;93.78;;;51.70;;
67508;SDS011;54354;44.724;11.284;2023-02-23T08:26:53;91.05;;;51.35;;
67508;SDS011;54354;44.724;11.284;2023-02-23T08:29:19;93.25;;;52.72;;
67508;SDS011;54354;44.724;11.284;2023-02-23T08:31:45;88.57;;;50.67;;
67508;SDS011;54354;44.724;11.284;2023-02-23T09:31:46;119.88;;;63.25;;
67508;SDS011;54354;44.724;11.284;2023-02-23T09:34:12;115.72;;;63.65;;
67508;SDS011;54354;44.724;11.284;2023-02-23T09:36:37;117.28;;;65.38;;
67508;SDS011;54354;44.724;11.284;2023-02-23T09:39:03;123.18;;;65.05;;
67508;SDS011;54354;44.724;11.284;2023-02-23T09:44:33;132.55;;;71.53;;
67508;SDS011;54354;44.724;11.284;2023-02-23T09:49:46;128.32;;;68.22;;
67508;SDS011;54354;44.724;11.284;2023-02-23T09:52:15;124.55;;;70.38;;
67508;SDS011;54354;44.724;11.284;2023-02-23T09:54:44;124.40;;;70.85;;
67508;SDS011;54354;44.724;11.284;2023-02-23T09:57:11;133.10;;;73.30;;
67508;SDS011;54354;44.724;11.284;2023-02-23T09:59:40;133.23;;;72.28;;
67508;SDS011;54354;44.724;11.284;2023-02-23T10:02:16;127.22;;;70.55;;
67508;SDS011;54354;44.724;11.284;2023-02-23T10:05:06;132.80;;;70.43;;
67508;SDS011;54354;44.724;11.284;2023-02-23T10:07:42;130.95;;;69.40;;
67508;SDS011;54354;44.724;11.284;2023-02-23T10:16:02;166.27;;;87.85;;
67508;SDS011;54354;44.724;11.284;2023-02-23T10:21:41;160.63;;;88.90;;
67508;SDS011;54354;44.724;11.284;2023-02-23T10:24:20;159.60;;;84.55;;
67508;SDS011;54354;44.724;11.284;2023-02-23T10:26:50;157.10;;;85.70;;
67508;SDS011;54354;44.724;11.284;2023-02-23T10:31:53;183.85;;;101.57;;
67508;SDS011;54354;44.724;11.284;2023-02-23T10:34:22;172.13;;;96.32;;
67508;SDS011;54354;44.724;11.284;2023-02-23T10:36:52;170.20;;;94.82;;
67508;SDS011;54354;44.724;11.284;2023-02-23T10:39:23;181.27;;;99.95;;
67508;SDS011;54354;44.724;11.284;2023-02-23T10:41:49;169.98;;;94.18;;
67508;SDS011;54354;44.724;11.284;2023-02-23T10:44:19;175.02;;;96.25;;
67508;SDS011;54354;44.724;11.284;2023-02-23T10:46:49;174.02;;;98.85;;
67508;SDS011;54354;44.724;11.284;2023-02-23T10:49:19;172.38;;;94.68;;
67508;SDS011;54354;44.724;11.284;2023-02-23T10:51:47;168.68;;;87.97;;
67508;SDS011;54354;44.724;11.284;2023-02-23T10:57:00;157.32;;;84.97;;
67508;SDS011;54354;44.724;11.284;2023-02-23T10:59:28;150.68;;;82.07;;
67508;SDS011;54354;44.724;11.284;2023-02-23T11:01:54;151.88;;;79.93;;
67508;SDS011;54354;44.724;11.284;2023-02-23T11:04:21;135.57;;;78.68;;
67508;SDS011;54354;44.724;11.284;2023-02-23T11:06:48;141.60;;;77.57;;
67508;SDS011;54354;44.724;11.284;2023-02-23T11:09:17;150.77;;;79.53;;
67508;SDS011;54354;44.724;11.284;2023-02-23T11:11:54;143.20;;;75.68;;
67508;SDS011;54354;44.724;11.284;2023-02-23T11:14:22;138.85;;;73.55;;
67508;SDS011;54354;44.724;11.284;2023-02-23T11:16:49;139.88;;;75.95;;
67508;SDS011;54354;44.724;11.284;2023-02-23T11:19:34;145.38;;;76.18;;
67508;SDS011;54354;44.724;11.284;2023-02-23T11:22:02;143.82;;;75.95;;
67508;SDS011;54354;44.724;11.284;2023-02-23T11:24:32;132.05;;;71.22;;
67508;SDS011;54354;44.724;11.284;2023-02-23T11:27:04;140.05;;;75.78;;
67508;SDS011;54354;44.724;11.284;2023-02-23T11:29:33;140.68;;;76.38;;
67508;SDS011;54354;44.724;11.284;2023-02-23T11:32:07;134.25;;;72.45;;
67508;SDS011;54354;44.724;11.284;2023-02-23T11:34:37;132.75;;;70.95;;
67508;SDS011;54354;44.724;11.284;2023-02-23T11:42:56;104.90;;;61.55;;
67508;SDS011;54354;44.724;11.284;2023-02-23T11:45:33;123.95;;;66.18;;
67508;SDS011;54354;44.724;11.284;2023-02-23T11:48:14;114.13;;;62.95;;
67508;SDS011;54354;44.724;11.284;2023-02-23T11:50:45;100.28;;;57.05;;
67508;SDS011;54354;44.724;11.284;2023-02-23T11:53:14;95.03;;;54.17;;
67508;SDS011;54354;44.724;11.284;2023-02-23T11:55:51;109.32;;;61.28;;
67508;SDS011;54354;44.724;11.284;2023-02-23T11:58:33;111.53;;;63.67;;
67508;SDS011;54354;44.724;11.284;2023-02-23T12:01:07;121.50;;;67.05;;
67508;SDS011;54354;44.724;11.284;2023-02-23T12:03:37;116.10;;;62.33;;
67508;SDS011;54354;44.724;11.284;2023-02-23T12:06:14;100.85;;;57.30;;
67508;SDS011;54354;44.724;11.284;2023-02-23T12:09:03;87.07;;;47.60;;
67508;SDS011;54354;44.724;11.284;2023-02-23T12:11:31;97.50;;;53.78;;
67508;SDS011;54354;44.724;11.284;2023-02-23T12:14:07;96.28;;;51.90;;
67508;SDS011;54354;44.724;11.284;2023-02-23T12:16:45;96.20;;;50.88;;
67508;SDS011;54354;44.724;11.284;2023-02-23T12:19:26;90.80;;;49.85;;
67508;SDS011;54354;44.724;11.284;2023-02-23T12:30:07;84.50;;;48.45;;
67508;SDS011;54354;44.724;11.284;2023-02-23T12:32:45;88.68;;;49.05;;
67508;SDS011;54354;44.724;11.284;2023-02-23T12:40:34;79.03;;;46.92;;
67508;SDS011;54354;44.724;11.284;2023-02-23T12:46:12;89.32;;;47.97;;
67508;SDS011;54354;44.724;11.284;2023-02-23T12:51:35;87.28;;;48.75;;
67508;SDS011;54354;44.724;11.284;2023-02-23T12:54:09;93.50;;;51.17;;
67508;SDS011;54354;44.724;11.284;2023-02-23T13:10:04;101.78;;;51.72;;
67508;SDS011;54354;44.724;11.284;2023-02-23T13:18:31;95.32;;;52.83;;
67508;SDS011;54354;44.724;11.284;2023-02-23T13:21:26;91.22;;;50.83;;
67508;SDS011;54354;44.724;11.284;2023-02-23T13:24:00;91.72;;;50.17;;
67508;SDS011;54354;44.724;11.284;2023-02-23T13:32:04;72.55;;;42.10;;
67508;SDS011;54354;44.724;11.284;2023-02-23T13:37:42;67.70;;;38.17;;
67508;SDS011;54354;44.724;11.284;2023-02-23T13:42:53;72.13;;;41.10;;
67508;SDS011;54354;44.724;11.284;2023-02-23T13:56:45;81.65;;;44.58;;
67508;SDS011;54354;44.724;11.284;2023-02-23T13:59:20;73.22;;;43.38;;
67508;SDS011;54354;44.724;11.284;2023-02-23T14:01:47;62.75;;;36.65;;
67508;SDS011;54354;44.724;11.284;2023-02-23T14:04:25;65.28;;;38.95;;
67508;SDS011;54354;44.724;11.284;2023-02-23T14:07:03;57.47;;;36.70;;
67508;SDS011;54354;44.724;11.284;2023-02-23T14:09:43;61.83;;;35.90;;
67508;SDS011;54354;44.724;11.284;2023-02-23T14:12:36;57.15;;;34.83;;
67508;SDS011;54354;44.724;11.284;2023-02-23T14:17:59;54.25;;;31.33;;
67508;SDS011;54354;44.724;11.284;2023-02-23T14:23:14;68.18;;;39.97;;
67508;SDS011;54354;44.724;11.284;2023-02-23T14:28:31;75.30;;;42.58;;
67508;SDS011;54354;44.724;11.284;2023-02-23T14:31:00;73.68;;;42.60;;
67508;SDS011;54354;44.724;11.284;2023-02-23T14:38:45;78.60;;;44.40;;
67508;SDS011;54354;44.724;11.284;2023-02-23T14:41:10;76.47;;;45.30;;
67508;SDS011;54354;44.724;11.284;2023-02-23T14:46:12;82.07;;;46.50;;
67508;SDS011;54354;44.724;11.284;2023-02-23T14:48:43;78.25;;;45.00;;
67508;SDS011;54354;44.724;11.284;2023-02-23T14:51:36;92.90;;;47.65;;
67508;SDS011;54354;44.724;11.284;2023-02-23T14:54:20;86.75;;;47.97;;
67508;SDS011;54354;44.724;11.284;2023-02-23T14:59:37;85.80;;;46.72;;
67508;SDS011;54354;44.724;11.284;2023-02-23T15:02:23;85.82;;;48.63;;
67508;SDS011;54354;44.724;11.284;2023-02-23T15:04:50;78.68;;;45.58;;
67508;SDS011;54354;44.724;11.284;2023-02-23T15:07:17;90.53;;;48.72;;
67508;SDS011;54354;44.724;11.284;2023-02-23T15:09:55;91.47;;;50.05;;
67508;SDS011;54354;44.724;11.284;2023-02-23T15:12:27;92.18;;;50.85;;
67508;SDS011;54354;44.724;11.284;2023-02-23T15:14:58;88.70;;;49.10;;
67508;SDS011;54354;44.724;11.284;2023-02-23T15:17:26;83.55;;;48.42;;
67508;SDS011;54354;44.724;11.284;2023-02-23T15:20:03;90.07;;;50.50;;
67508;SDS011;54354;44.724;11.284;2023-02-23T15:22:34;86.93;;;48.92;;
67508;SDS011;54354;44.724;11.284;2023-02-23T15:25:13;93.18;;;52.03;;
67508;SDS011;54354;44.724;11.284;2023-02-23T15:27:41;88.25;;;49.55;;
67508;SDS011;54354;44.724;11.284;2023-02-23T15:32:58;88.80;;;50.45;;
67508;SDS011;54354;44.724;11.284;2023-02-23T15:35:24;88.25;;;50.08;;
67508;SDS011;54354;44.724;11.284;2023-02-23T15:37:50;90.57;;;50.83;;
67508;SDS011;54354;44.724;11.284;2023-02-23T15:40:16;90.97;;;51.17;;
67508;SDS011;54354;44.724;11.284;2023-02-23T15:42:51;86.73;;;51.60;;
67508;SDS011;54354;44.724;11.284;2023-02-23T15:47:58;94.30;;;51.22;;
67508;SDS011;54354;44.724;11.284;2023-02-23T15:50:27;88.93;;;49.67;;
67508;SDS011;54354;44.724;11.284;2023-02-23T15:53:05;85.63;;;49.95;;
67508;SDS011;54354;44.724;11.284;2023-02-23T15:55:39;86.80;;;49.60;;
67508;SDS011;54354;44.724;11.284;2023-02-23T16:00:56;89.40;;;49.15;;
67508;SDS011;54354;44.724;11.284;2023-02-23T16:03:32;88.38;;;50.42;;
67508;SDS011;54354;44.724;11.284;2023-02-23T16:08:27;97.50;;;50.85;;
67508;SDS011;54354;44.724;11.284;2023-02-23T16:11:11;90.43;;;50.72;;
67508;SDS011;54354;44.724;11.284;2023-02-23T16:13:43;89.72;;;49.97;;
67508;SDS011;54354;44.724;11.284;2023-02-23T16:16:10;95.57;;;50.92;;
67508;SDS011;54354;44.724;11.284;2023-02-23T16:18:43;87.20;;;49.70;;
67508;SDS011;54354;44.724;11.284;2023-02-23T16:21:14;86.57;;;50.35;;
67508;SDS011;54354;44.724;11.284;2023-02-23T16:23:46;87.38;;;50.85;;
67508;SDS011;54354;44.724;11.284;2023-02-23T16:26:18;177.07;;;98.03;;
67508;SDS011;54354;44.724;11.284;2023-02-23T16:28:50;108.70;;;60.58;;
67508;SDS011;54354;44.724;11.284;2023-02-23T16:31:24;99.97;;;54.30;;
67508;SDS011;54354;44.724;11.284;2023-02-23T16:34:16;97.90;;;51.70;;
67508;SDS011;54354;44.724;11.284;2023-02-23T16:37:03;93.75;;;53.08;;
67508;SDS011;54354;44.724;11.284;2023-02-23T16:39:41;93.13;;;51.35;;
67508;SDS011;54354;44.724;11.284;2023-02-23T16:42:08;95.57;;;51.30;;
67508;SDS011;54354;44.724;11.284;2023-02-23T16:44:44;93.25;;;51.72;;
67508;SDS011;54354;44.724;11.284;2023-02-23T16:47:25;90.50;;;51.30;;
67508;SDS011;54354;44.724;11.284;2023-02-23T16:49:53;89.07;;;51.95;;
67508;SDS011;54354;44.724;11.284;2023-02-23T16:52:20;97.72;;;52.03;;
67508;SDS011;54354;44.724;11.284;2023-02-23T16:54:48;95.90;;;54.10;;
67508;SDS011;54354;44.724;11.284;2023-02-23T16:57:28;98.65;;;51.58;;
67508;SDS011;54354;44.724;11.284;2023-02-23T16:59:57;90.25;;;50.60;;
67508;SDS011;54354;44.724;11.284;2023-02-23T17:02:25;95.63;;;52.88;;
67508;SDS011;54354;44.724;11.284;2023-02-23T17:04:51;100.32;;;53.92;;
67508;SDS011;54354;44.724;11.284;2023-02-23T17:07:17;95.78;;;51.55;;
67508;SDS011;54354;44.724;11.284;2023-02-23T17:09:44;97.95;;;53.45;;
67508;SDS011;54354;44.724;11.284;2023-02-23T17:12:10;93.45;;;51.47;;
67508;SDS011;54354;44.724;11.284;2023-02-23T17:14:38;95.50;;;51.90;;
67508;SDS011;54354;44.724;11.284;2023-02-23T17:17:04;97.50;;;52.20;;
67508;SDS011;54354;44.724;11.284;2023-02-23T17:19:30;96.85;;;53.83;;
67508;SDS011;54354;44.724;11.284;2023-02-23T17:21:55;94.10;;;52.20;;
67508;SDS011;54354;44.724;11.284;2023-02-23T17:24:21;91.00;;;51.97;;
67508;SDS011;54354;44.724;11.284;2023-02-23T17:26:50;93.75;;;50.72;;
67508;SDS011;54354;44.724;11.284;2023-02-23T17:29:16;97.78;;;53.80;;
67508;SDS011;54354;44.724;11.284;2023-02-23T17:31:42;98.57;;;53.65;;
67508;SDS011;54354;44.724;11.284;2023-02-23T17:34:08;97.03;;;51.97;;
67508;SDS011;54354;44.724;11.284;2023-02-23T17:36:34;94.65;;;53.78;;
67508;SDS011;54354;44.724;11.284;2023-02-23T17:39:00;93.30;;;51.53;;
67508;SDS011;54354;44.724;11.284;2023-02-23T17:41:26;99.10;;;52.08;;
67508;SDS011;54354;44.724;11.284;2023-02-23T17:43:52;91.90;;;51.47;;
67508;SDS011;54354;44.724;11.284;2023-02-23T17:46:18;92.10;;;51.58;;
67508;SDS011;54354;44.724;11.284;2023-02-23T17:48:43;104.78;;;57.88;;
67508;SDS011;54354;44.724;11.284;2023-02-23T17:51:11;95.40;;;54.50;;
67508;SDS011;54354;44.724;11.284;2023-02-23T17:53:40;97.78;;;52.03;;
67508;SDS011;54354;44.724;11.284;2023-02-23T17:56:06;92.10;;;53.78;;
67508;SDS011;54354;44.724;11.284;2023-02-23T17:58:32;87.68;;;50.20;;
67508;SDS011;54354;44.724;11.284;2023-02-23T18:01:00;86.60;;;49.85;;
67508;SDS011;54354;44.724;11.284;2023-02-23T18:03:27;94.55;;;52.40;;
67508;SDS011;54354;44.724;11.284;2023-02-23T18:06:01;86.15;;;50.13;;
67508;SDS011;54354;44.724;11.284;2023-02-23T18:08:31;96.90;;;51.42;;